Time;durP1;ratioP1;P1;durP2;ratioP2;P2;SDS_P1;SDS_P2;PMS_P1;PMS_P2;Temp;Humidity;BMP_temperature;BMP_pressure;BME280_temperature;BME280_humidity;BME280_pressure;Samples;Min_cycle;Max_cycle;Signal;HPM_P1;HPM_P2
2021/12/20 00:02:10;;;;;;;3.20;3.10;;;17.00;67.00;;;;;;5068851;28;43931;-75
2021/12/20 00:04:39;;;;;;;2.80;2.80;;;17.00;67.20;;;;;;5068593;28;43940;-75
2021/12/20 00:07:07;;;;;;;2.53;2.53;;;16.90;67.50;;;;;;5050761;28;43893;-75
2021/12/20 00:09:35;;;;;;;3.10;3.00;;;16.80;67.70;;;;;;5067920;28;43892;-75
2021/12/20 00:12:04;;;;;;;3.13;3.03;;;16.80;67.90;;;;;;5049898;28;44821;-75
2021/12/20 00:14:32;;;;;;;2.90;2.80;;;16.70;68.10;;;;;;5068500;28;43880;-75
2021/12/20 00:17:01;;;;;;;2.90;2.80;;;16.70;68.30;;;;;;5050470;28;44024;-74
2021/12/20 00:19:29;;;;;;;2.57;2.57;;;16.60;68.30;;;;;;5049993;28;45691;-74
2021/12/20 00:21:57;;;;;;;3.10;3.00;;;16.60;68.50;;;;;;5068529;28;43906;-75
2021/12/20 00:24:28;;;;;;;2.50;2.50;;;16.60;68.60;;;;;;5068479;28;43491;-75
2021/12/20 00:26:56;;;;;;;2.87;2.77;;;16.60;68.70;;;;;;5068828;28;43927;-74
2021/12/20 00:29:24;;;;;;;3.00;2.90;;;16.60;68.60;;;;;;5050175;28;45396;-75
2021/12/20 00:31:52;;;;;;;2.70;2.60;;;16.70;68.10;;;;;;5068372;28;44070;-75
2021/12/20 00:34:22;;;;;;;2.80;2.70;;;16.80;67.90;;;;;;5068511;28;43908;-75
2021/12/20 00:36:57;;;;;;;2.40;2.40;;;16.80;67.90;;;;;;5068703;28;43985;-75
2021/12/20 00:42:09;;;;;;;2.73;2.63;;;16.70;68.00;;;;;;5046377;28;43759;-75
2021/12/20 00:44:37;;;;;;;2.27;2.27;;;16.70;68.20;;;;;;5049886;28;43972;-75
2021/12/20 00:47:05;;;;;;;2.70;2.63;;;16.60;68.30;;;;;;5068418;28;43983;-75
2021/12/20 00:49:35;;;;;;;2.80;2.80;;;16.60;68.40;;;;;;5068108;28;43932;-75
2021/12/20 00:52:03;;;;;;;2.40;2.40;;;16.60;68.50;;;;;;5049485;28;45583;-75
2021/12/20 00:54:31;;;;;;;2.77;2.67;;;16.60;68.60;;;;;;5049401;28;43988;-75
2021/12/20 00:56:59;;;;;;;2.70;2.60;;;16.60;68.70;;;;;;5068125;28;43877;-75
2021/12/20 00:59:27;;;;;;;2.33;2.33;;;16.60;68.70;;;;;;5067226;28;43967;-76
2021/12/20 01:01:56;;;;;;;2.57;2.57;;;16.50;68.60;;;;;;5067709;28;44355;-75
2021/12/20 01:04:24;;;;;;;3.00;2.90;;;16.50;68.70;;;;;;5068235;28;43961;-75
2021/12/20 01:06:53;;;;;;;2.63;2.63;;;16.50;68.80;;;;;;5068216;28;43959;-74
2021/12/20 01:09:21;;;;;;;2.60;2.60;;;16.60;68.60;;;;;;5049334;28;45540;-75
2021/12/20 01:11:53;;;;;;;2.40;2.40;;;16.80;68.30;;;;;;5067781;28;43949;-75
2021/12/20 01:14:24;;;;;;;2.20;2.20;;;16.90;67.80;;;;;;5067984;28;43924;-75
2021/12/20 01:16:54;;;;;;;2.20;2.20;;;17.00;67.30;;;;;;5049725;28;43459;-75
2021/12/20 01:19:22;;;;;;;2.37;2.37;;;17.10;67.10;;;;;;5067519;28;44607;-75
2021/12/20 01:21:50;;;;;;;2.33;2.33;;;17.00;67.00;;;;;;5066428;28;44106;-75
2021/12/20 01:24:19;;;;;;;2.17;2.17;;;17.00;67.30;;;;;;5049187;28;43468;-75
2021/12/20 01:26:47;;;;;;;2.33;2.30;;;16.90;67.50;;;;;;5049555;28;44090;-75
2021/12/20 01:29:15;;;;;;;2.20;2.20;;;16.80;67.70;;;;;;5067377;28;45119;-75
2021/12/20 01:31:43;;;;;;;2.30;2.30;;;16.80;67.90;;;;;;5048839;28;44212;-75
2021/12/20 01:34:11;;;;;;;2.30;2.30;;;16.70;68.00;;;;;;5067403;28;43809;-75
2021/12/20 01:36:39;;;;;;;2.40;2.40;;;16.70;68.20;;;;;;5049297;28;43785;-74
2021/12/20 01:39:08;;;;;;;2.00;2.00;;;16.60;68.20;;;;;;5067023;28;43865;-74
2021/12/20 01:41:40;;;;;;;2.40;2.40;;;16.60;68.30;;;;;;5067034;28;43872;-75
2021/12/20 01:44:08;;;;;;;2.33;2.33;;;16.60;68.50;;;;;;5067255;28;44050;-75
2021/12/20 01:46:37;;;;;;;2.30;2.30;;;16.60;68.60;;;;;;5067499;28;43758;-75
2021/12/20 01:49:08;;;;;;;2.50;2.50;;;16.70;68.30;;;;;;5067226;28;43811;-75
2021/12/20 01:51:49;;;;;;;2.30;2.30;;;16.80;67.90;;;;;;5048542;28;43433;-75
2021/12/20 01:54:17;;;;;;;2.00;2.00;;;16.80;67.80;;;;;;5061177;28;43376;-75
2021/12/20 01:56:46;;;;;;;2.10;2.10;;;16.80;67.90;;;;;;5048883;28;44069;-75
2021/12/20 01:59:14;;;;;;;2.37;2.37;;;16.70;68.00;;;;;;5048137;28;45774;-75
2021/12/20 02:01:46;;;;;;;2.37;2.37;;;16.70;68.00;;;;;;5048777;28;44609;-75
2021/12/20 02:04:14;;;;;;;2.07;2.07;;;16.70;68.30;;;;;;5048713;28;43864;-75
2021/12/20 02:06:46;;;;;;;2.40;2.40;;;16.60;68.30;;;;;;5049174;28;44161;-75
2021/12/20 02:09:15;;;;;;;2.23;2.23;;;16.60;68.40;;;;;;5066810;28;43705;-74
2021/12/20 02:11:46;;;;;;;2.30;2.20;;;16.60;68.50;;;;;;5048370;28;44721;-75
2021/12/20 02:14:14;;;;;;;2.20;2.20;;;16.60;68.60;;;;;;5048435;28;43410;-75
2021/12/20 02:16:43;;;;;;;2.50;2.50;;;16.60;68.70;;;;;;5066815;28;43940;-75
2021/12/20 02:19:12;;;;;;;2.20;2.20;;;16.50;68.60;;;;;;5048223;28;45819;-75
2021/12/20 02:21:42;;;;;;;2.47;2.47;;;16.50;68.60;;;;;;5066555;28;43360;-75
2021/12/20 02:24:10;;;;;;;2.40;2.40;;;16.50;68.80;;;;;;5048197;28;43480;-75
2021/12/20 02:26:38;;;;;;;2.40;2.30;;;16.60;68.70;;;;;;5048703;28;44028;-75
2021/12/20 02:29:08;;;;;;;2.10;2.10;;;16.70;68.40;;;;;;5048172;28;45746;-75
2021/12/20 02:37:26;;;;;;;2.00;2.00;;;17.10;67.10;;;;;;5070429;28;43796;-77
2021/12/20 02:39:55;;;;;;;2.40;2.30;;;17.00;67.00;;;;;;5070352;28;43686;-75
2021/12/20 02:42:28;;;;;;;2.17;2.07;;;17.00;67.20;;;;;;5070068;28;44081;-75
2021/12/20 02:45:09;;;;;;;2.20;2.20;;;16.90;67.40;;;;;;5051559;28;43933;-75
2021/12/20 02:47:41;;;;;;;2.20;2.20;;;16.80;67.60;;;;;;5052074;28;43771;-74
2021/12/20 02:50:10;;;;;;;2.20;2.20;;;16.80;67.90;;;;;;5069946;28;43958;-75
2021/12/20 02:52:39;;;;;;;2.27;2.27;;;16.70;67.90;;;;;;5051411;28;44720;-75
2021/12/20 02:55:08;;;;;;;2.30;2.30;;;16.70;68.10;;;;;;5051123;28;43440;-75
2021/12/20 02:57:36;;;;;;;2.10;2.10;;;16.70;68.20;;;;;;5069848;28;43415;-75
2021/12/20 03:00:05;;;;;;;2.13;2.13;;;16.60;68.20;;;;;;5051287;28;44415;-75
2021/12/20 03:02:33;;;;;;;2.40;2.30;;;16.60;68.30;;;;;;5051141;28;43457;-75
2021/12/20 03:05:01;;;;;;;2.10;2.10;;;16.60;68.50;;;;;;5069285;28;43839;-76
2021/12/20 03:07:36;;;;;;;2.27;2.27;;;16.70;68.40;;;;;;5070027;28;44121;-75
2021/12/20 03:10:06;;;;;;;2.20;2.20;;;16.80;68.00;;;;;;5069517;28;43934;-75
2021/12/20 03:12:34;;;;;;;2.17;2.17;;;16.80;67.70;;;;;;5069429;28;43712;-75
2021/12/20 03:15:09;;;;;;;2.17;2.17;;;16.80;67.80;;;;;;5069466;28;43374;-76
2021/12/20 03:17:37;;;;;;;2.20;2.20;;;16.70;67.80;;;;;;5051619;28;44063;-75
2021/12/20 03:20:06;;;;;;;2.10;2.10;;;16.70;68.70;;;;;;5051224;28;45414;-75
2021/12/20 03:22:34;;;;;;;2.27;2.27;;;16.70;68.20;;;;;;5051002;28;44637;-75
2021/12/20 03:25:03;;;;;;;2.10;2.10;;;16.60;68.30;;;;;;5050758;28;44087;-75
2021/12/20 03:27:32;;;;;;;2.30;2.30;;;16.60;68.30;;;;;;5069593;28;43886;-75
2021/12/20 03:30:00;;;;;;;2.30;2.30;;;16.60;68.40;;;;;;5069158;28;44159;-75
2021/12/20 03:32:28;;;;;;;2.17;2.10;;;16.60;68.60;;;;;;5069206;28;43969;-75
2021/12/20 03:34:56;;;;;;;2.10;2.10;;;16.50;68.50;;;;;;5069110;28;44007;-75
2021/12/20 03:37:24;;;;;;;2.07;2.07;;;16.50;68.50;;;;;;5051274;28;43589;-75
2021/12/20 03:39:52;;;;;;;2.03;2.03;;;16.60;68.70;;;;;;5069246;28;43818;-75
2021/12/20 03:42:20;;;;;;;2.20;2.20;;;16.50;68.70;;;;;;5069491;28;43813;-75
2021/12/20 03:44:50;;;;;;;2.17;2.17;;;16.60;68.70;;;;;;5049755;28;44023;-75
2021/12/20 03:47:18;;;;;;;2.20;2.20;;;16.70;68.30;;;;;;5069400;28;43950;-76
2021/12/20 03:49:46;;;;;;;2.07;2.03;;;16.80;67.90;;;;;;5068929;28;43989;-75
2021/12/20 03:52:14;;;;;;;1.97;1.97;;;17.00;67.40;;;;;;5050531;28;44302;-75
2021/12/20 03:54:42;;;;;;;2.07;2.07;;;17.10;67.00;;;;;;5068808;28;43865;-75
2021/12/20 03:57:10;;;;;;;2.47;2.47;;;17.10;66.90;;;;;;5050557;28;44043;-75
2021/12/20 03:59:38;;;;;;;1.90;1.90;;;17.00;66.80;;;;;;5068503;28;44099;-76
2021/12/20 04:02:08;;;;;;;1.90;1.90;;;16.90;67.00;;;;;;5068937;28;44070;-75
2021/12/20 04:04:36;;;;;;;2.00;2.00;;;16.90;67.30;;;;;;5050524;28;44090;-75
2021/12/20 04:07:05;;;;;;;2.20;2.20;;;16.90;67.60;;;;;;5069267;28;44016;-75
2021/12/20 04:09:33;;;;;;;1.93;1.93;;;16.80;67.80;;;;;;5068394;28;44049;-75
2021/12/20 04:12:01;;;;;;;2.00;2.00;;;16.70;67.80;;;;;;5068418;28;44078;-76
2021/12/20 04:14:29;;;;;;;1.87;1.87;;;16.70;68.00;;;;;;5068551;28;43955;-75
2021/12/20 04:16:57;;;;;;;2.33;2.23;;;16.60;68.10;;;;;;5068535;28;44088;-76
2021/12/20 04:19:26;;;;;;;2.00;2.00;;;16.60;68.20;;;;;;5050023;28;46868;-76
2021/12/20 04:21:54;;;;;;;1.90;1.90;;;16.60;68.30;;;;;;5068739;28;43397;-76
2021/12/20 04:24:22;;;;;;;1.80;1.80;;;16.60;68.30;;;;;;5068730;28;43371;-76
2021/12/20 04:26:50;;;;;;;2.00;2.00;;;16.70;68.00;;;;;;5068984;28;43805;-76
2021/12/20 04:29:19;;;;;;;1.93;1.93;;;16.80;67.70;;;;;;5068120;28;43991;-75
2021/12/20 04:31:47;;;;;;;2.13;2.13;;;16.80;67.60;;;;;;5068379;28;43904;-76
2021/12/20 04:34:16;;;;;;;2.00;2.00;;;16.80;67.70;;;;;;5050135;28;44038;-75
2021/12/20 04:36:45;;;;;;;1.87;1.87;;;16.80;67.90;;;;;;5068505;28;43939;-77
2021/12/20 04:39:17;;;;;;;1.87;1.87;;;16.70;67.90;;;;;;5068599;28;44078;-74
2021/12/20 04:41:45;;;;;;;1.90;1.90;;;16.70;68.00;;;;;;5068248;28;44021;-75
2021/12/20 04:44:13;;;;;;;1.80;1.80;;;16.60;68.20;;;;;;5068262;28;43896;-73
2021/12/20 04:46:41;;;;;;;2.27;2.17;;;16.60;68.30;;;;;;5068581;28;44266;-74
2021/12/20 04:49:10;;;;;;;2.17;2.07;;;16.60;68.40;;;;;;5067802;28;44010;-73
2021/12/20 04:51:38;;;;;;;2.13;2.03;;;16.60;68.40;;;;;;5067748;28;44017;-73
2021/12/20 04:54:07;;;;;;;2.50;2.40;;;16.50;68.50;;;;;;5068064;28;43443;-73
2021/12/20 04:56:35;;;;;;;2.60;2.43;;;16.50;68.50;;;;;;5067637;28;44106;-73
2021/12/20 04:59:03;;;;;;;2.97;2.77;;;16.50;68.50;;;;;;5049079;28;46189;-75
2021/12/20 05:01:35;;;;;;;2.80;2.60;;;16.50;68.70;;;;;;5066404;28;44714;-74
2021/12/20 05:04:03;;;;;;;2.87;2.70;;;16.60;68.70;;;;;;5061774;28;43905;-75
2021/12/20 05:06:33;;;;;;;3.17;2.87;;;16.70;68.40;;;;;;5062113;28;44030;-74
2021/12/20 05:09:03;;;;;;;3.43;2.90;;;16.80;67.90;;;;;;5067325;28;43999;-74
2021/12/20 05:11:33;;;;;;;2.83;2.50;;;17.00;67.50;;;;;;5049304;28;43974;-77
2021/12/20 05:14:01;;;;;;;3.23;2.93;;;17.00;67.00;;;;;;5067802;28;44001;-75
2021/12/20 05:16:29;;;;;;;2.93;2.73;;;17.00;66.90;;;;;;5049410;28;43940;-75
2021/12/20 05:18:58;;;;;;;3.00;2.67;;;17.00;67.00;;;;;;5067350;28;44779;-75
2021/12/20 05:21:26;;;;;;;2.47;2.33;;;16.90;67.30;;;;;;5049252;28;44318;-75
2021/12/20 05:23:54;;;;;;;2.83;2.73;;;16.90;67.50;;;;;;5068000;28;43903;-75
2021/12/20 05:26:22;;;;;;;2.77;2.60;;;16.80;67.70;;;;;;5067881;28;43889;-75
2021/12/20 05:28:51;;;;;;;3.00;2.90;;;16.70;67.80;;;;;;5049128;28;44163;-75
2021/12/20 05:31:19;;;;;;;2.83;2.67;;;16.70;68.00;;;;;;5067753;28;43993;-74
2021/12/20 05:33:47;;;;;;;2.60;2.50;;;16.70;68.10;;;;;;5067560;28;43339;-74
2021/12/20 05:36:16;;;;;;;2.80;2.63;;;16.60;68.10;;;;;;5067422;28;44083;-74
2021/12/20 05:38:48;;;;;;;2.30;2.20;;;16.60;68.10;;;;;;5048711;28;45369;-74
2021/12/20 05:41:16;;;;;;;3.30;3.00;;;16.60;68.30;;;;;;5049106;28;44674;-75
2021/12/20 05:43:45;;;;;;;3.03;2.83;;;16.60;69.00;;;;;;5067138;28;43371;-75
2021/12/20 05:46:14;;;;;;;2.87;2.60;;;16.70;68.00;;;;;;5067467;28;44220;-75
2021/12/20 05:48:42;;;;;;;2.93;2.73;;;16.80;67.70;;;;;;5048717;28;45780;-75
2021/12/20 05:51:12;;;;;;;3.10;2.80;;;16.80;67.50;;;;;;5066878;28;43373;-75
2021/12/20 05:53:40;;;;;;;2.77;2.57;;;16.80;67.60;;;;;;5067039;28;43998;-75
2021/12/20 05:56:08;;;;;;;2.80;2.70;;;16.80;67.70;;;;;;5067254;28;44099;-76
2021/12/20 05:58:36;;;;;;;2.87;2.77;;;16.70;67.80;;;;;;5047858;28;45910;-75
2021/12/20 06:01:04;;;;;;;2.80;2.60;;;16.70;67.90;;;;;;5066893;28;44039;-76
2021/12/20 06:03:34;;;;;;;2.70;2.50;;;16.70;68.10;;;;;;5048835;28;43445;-75
2021/12/20 06:06:02;;;;;;;2.80;2.60;;;16.60;68.20;;;;;;5067064;28;43462;-75
2021/12/20 06:08:30;;;;;;;2.90;2.70;;;16.60;68.30;;;;;;5047692;28;45649;-75
2021/12/20 06:10:58;;;;;;;3.53;3.23;;;16.60;68.30;;;;;;5048268;28;45085;-75
2021/12/20 06:13:29;;;;;;;2.87;2.67;;;16.60;68.50;;;;;;5067047;28;44006;-75
2021/12/20 06:15:57;;;;;;;2.93;2.73;;;16.60;68.50;;;;;;5066859;28;44078;-75
2021/12/20 06:18:25;;;;;;;2.87;2.67;;;16.50;68.50;;;;;;5066538;28;44828;-76
2021/12/20 06:20:55;;;;;;;2.80;2.60;;;16.50;69.30;;;;;;5048301;28;44759;-75
2021/12/20 06:23:23;;;;;;;2.90;2.70;;;16.50;68.50;;;;;;5066968;28;44008;-75
2021/12/20 06:25:51;;;;;;;2.57;2.47;;;16.50;68.60;;;;;;5067190;28;43590;-76
2021/12/20 06:28:19;;;;;;;2.57;2.43;;;16.50;68.60;;;;;;5066560;28;44230;-75
2021/12/20 06:30:48;;;;;;;3.00;2.80;;;16.50;68.60;;;;;;5066320;28;43984;-75
2021/12/20 06:33:16;;;;;;;2.77;2.60;;;16.50;68.70;;;;;;5066399;28;43976;-75
2021/12/20 06:35:45;;;;;;;3.00;2.80;;;16.50;68.70;;;;;;5048567;28;43836;-76
2021/12/20 06:38:19;;;;;;;3.07;2.90;;;16.50;68.80;;;;;;5047790;28;46014;-75
2021/12/20 06:40:47;;;;;;;2.80;2.60;;;16.50;68.70;;;;;;5066403;28;44048;-75
2021/12/20 06:43:15;;;;;;;2.83;2.73;;;16.60;68.50;;;;;;5048276;28;43903;-75
2021/12/20 06:45:43;;;;;;;2.70;2.50;;;16.70;68.10;;;;;;5067032;28;43886;-75
2021/12/20 06:48:11;;;;;;;2.67;2.57;;;16.90;67.80;;;;;;5066082;28;44024;-76
2021/12/20 06:50:39;;;;;;;2.70;2.60;;;17.00;67.30;;;;;;5047572;28;44515;-76
2021/12/20 06:53:07;;;;;;;2.60;2.50;;;17.20;66.80;;;;;;5066303;28;43822;-76
2021/12/20 06:55:37;;;;;;;2.97;2.80;;;17.40;66.30;;;;;;5066561;28;43896;-75
2021/12/20 06:58:05;;;;;;;2.43;2.33;;;17.50;65.80;;;;;;5065080;28;43975;-75
2021/12/20 07:00:33;;;;;;;2.67;2.53;;;17.70;65.40;;;;;;5065924;28;43313;-74
2021/12/20 07:03:01;;;;;;;2.97;2.80;;;17.70;65.00;;;;;;5065955;28;44013;-75
2021/12/20 07:05:29;;;;;;;2.77;2.67;;;17.80;64.80;;;;;;5066524;28;44000;-76
2021/12/20 07:07:57;;;;;;;2.70;2.60;;;17.90;64.70;;;;;;5047379;28;46139;-76
2021/12/20 07:10:25;;;;;;;2.67;2.57;;;17.90;64.50;;;;;;5065817;28;43903;-76
2021/12/20 07:12:55;;;;;;;2.63;2.43;;;17.80;64.60;;;;;;5066271;28;43941;-75
2021/12/20 07:15:25;;;;;;;2.73;2.53;;;17.70;64.90;;;;;;5048286;28;44346;-75
2021/12/20 07:17:53;;;;;;;2.30;2.20;;;17.50;65.20;;;;;;5065825;28;45096;-75
2021/12/20 07:20:21;;;;;;;2.60;2.50;;;17.40;65.70;;;;;;5068151;28;43363;-76
2021/12/20 07:22:49;;;;;;;2.87;2.67;;;17.30;66.00;;;;;;5069460;28;43925;-75
2021/12/20 07:25:17;;;;;;;2.37;2.37;;;17.20;66.30;;;;;;5069667;28;43977;-75
2021/12/20 07:27:45;;;;;;;2.57;2.47;;;17.10;66.60;;;;;;5050821;28;46077;-76
2021/12/20 07:30:14;;;;;;;2.47;2.37;;;17.00;66.80;;;;;;5069033;28;43948;-77
2021/12/20 07:32:42;;;;;;;2.70;2.60;;;17.00;67.20;;;;;;5050894;28;43932;-75
2021/12/20 07:35:11;;;;;;;2.77;2.67;;;17.00;67.30;;;;;;5051009;28;44040;-75
2021/12/20 07:37:39;;;;;;;2.60;2.40;;;17.10;67.10;;;;;;5068682;28;43788;-75
2021/12/20 07:40:08;;;;;;;2.47;2.33;;;17.10;66.80;;;;;;5068764;28;43407;-75
2021/12/20 07:42:36;;;;;;;2.60;2.40;;;17.10;66.80;;;;;;5068908;28;43794;-75
2021/12/20 07:45:05;;;;;;;2.77;2.67;;;17.00;66.90;;;;;;5069625;28;44231;-75
2021/12/20 07:47:47;;;;;;;2.03;2.03;;;17.00;67.10;;;;;;5064292;28;43689;-76
2021/12/20 07:50:15;;;;;;;2.80;2.70;;;16.90;67.30;;;;;;5050636;28;44429;-75
2021/12/20 07:52:43;;;;;;;2.47;2.37;;;16.80;68.20;;;;;;5050686;28;44022;-74
2021/12/20 07:55:11;;;;;;;2.70;2.60;;;16.80;67.70;;;;;;5069120;28;44010;-74
2021/12/20 07:57:39;;;;;;;2.07;2.03;;;16.70;67.80;;;;;;5050203;28;45849;-75
2021/12/20 08:00:08;;;;;;;2.37;2.27;;;16.70;67.90;;;;;;5068200;28;44110;-75
2021/12/20 08:02:42;;;;;;;2.60;2.50;;;16.70;68.00;;;;;;5050683;28;44023;-76
2021/12/20 08:05:12;;;;;;;2.40;2.30;;;16.60;68.00;;;;;;5069033;28;44249;-75
2021/12/20 08:07:41;;;;;;;3.03;2.83;;;16.60;68.10;;;;;;5068502;28;43961;-75
2021/12/20 08:10:10;;;;;;;2.40;2.20;;;16.60;68.30;;;;;;5068419;28;43983;-76
2021/12/20 08:12:38;;;;;;;2.73;2.63;;;16.70;68.20;;;;;;5050284;28;43380;-77
2021/12/20 08:15:07;;;;;;;2.40;2.30;;;16.80;67.80;;;;;;5068783;28;43450;-76
2021/12/20 08:17:35;;;;;;;2.60;2.50;;;17.00;67.50;;;;;;5068366;28;44045;-76
2021/12/20 08:20:03;;;;;;;2.50;2.40;;;17.10;67.10;;;;;;5049924;28;44448;-76
2021/12/20 08:22:33;;;;;;;2.50;2.40;;;17.20;66.80;;;;;;5068834;28;43380;-75
2021/12/20 08:25:01;;;;;;;2.20;2.20;;;17.10;66.60;;;;;;5068795;28;43993;-75
2021/12/20 08:27:29;;;;;;;2.40;2.30;;;17.10;66.80;;;;;;5049829;28;44263;-75
2021/12/20 08:29:57;;;;;;;2.20;2.20;;;17.00;66.90;;;;;;5068254;28;43886;-76
2021/12/20 08:32:25;;;;;;;2.47;2.23;;;17.00;67.20;;;;;;5067531;28;43971;-76
2021/12/20 08:34:53;;;;;;;2.60;2.50;;;16.90;67.40;;;;;;5068879;28;43943;-76
2021/12/20 08:37:21;;;;;;;2.33;2.23;;;16.80;67.50;;;;;;5050276;28;44688;-76
2021/12/20 08:39:51;;;;;;;2.30;2.20;;;16.80;67.70;;;;;;5067984;28;44023;-76
2021/12/20 08:42:19;;;;;;;2.20;2.10;;;16.70;67.80;;;;;;5068174;28;44011;-75
2021/12/20 08:44:47;;;;;;;2.40;2.30;;;16.70;67.90;;;;;;5050177;28;43445;-75
2021/12/20 08:47:15;;;;;;;2.57;2.47;;;16.70;68.10;;;;;;5067673;28;43761;-75
2021/12/20 08:49:43;;;;;;;2.33;2.23;;;16.70;68.20;;;;;;5068068;28;44069;-75
2021/12/20 08:52:11;;;;;;;2.60;2.40;;;16.80;68.00;;;;;;5049717;28;44032;-74
2021/12/20 08:54:39;;;;;;;2.30;2.20;;;16.90;67.70;;;;;;5068276;28;43941;-77
2021/12/20 08:57:08;;;;;;;2.10;2.10;;;16.90;67.50;;;;;;5067255;28;43922;-76
2021/12/20 08:59:36;;;;;;;2.30;2.20;;;16.80;67.50;;;;;;5067111;28;44099;-76
2021/12/20 09:02:07;;;;;;;2.30;2.20;;;16.80;67.70;;;;;;5049408;28;44101;-75
2021/12/20 09:04:36;;;;;;;2.40;2.30;;;16.70;67.80;;;;;;5049778;28;43384;-76
2021/12/20 09:07:04;;;;;;;2.10;2.00;;;16.70;68.00;;;;;;5067668;28;44124;-75
2021/12/20 09:09:37;;;;;;;2.30;2.20;;;16.70;68.10;;;;;;5049311;28;44441;-76
2021/12/20 09:12:06;;;;;;;2.20;2.10;;;16.60;68.10;;;;;;5067525;28;44143;-76
2021/12/20 09:14:35;;;;;;;2.30;2.20;;;16.60;68.20;;;;;;5048850;28;43566;-75
2021/12/20 09:17:04;;;;;;;2.10;2.10;;;16.60;68.30;;;;;;5048755;28;46528;-75
2021/12/20 09:19:34;;;;;;;2.10;2.10;;;16.60;68.30;;;;;;5048833;28;43925;-75
2021/12/20 09:22:04;;;;;;;2.30;2.30;;;16.60;68.40;;;;;;5065764;28;43850;-75
2021/12/20 09:24:32;;;;;;;2.33;2.20;;;16.60;68.40;;;;;;5067725;28;43900;-75
2021/12/20 09:27:00;;;;;;;2.07;2.03;;;16.60;68.50;;;;;;5060634;28;44814;-75
2021/12/20 09:29:28;;;;;;;2.37;2.27;;;16.70;68.30;;;;;;5060896;28;43791;-75
2021/12/20 09:31:58;;;;;;;2.13;2.03;;;16.80;67.90;;;;;;5061141;28;43607;-75
2021/12/20 09:34:26;;;;;;;2.13;2.13;;;17.00;67.50;;;;;;5060089;28;43850;-75
2021/12/20 09:36:55;;;;;;;2.20;2.10;;;17.10;67.10;;;;;;5067249;28;43963;-75
2021/12/20 09:39:23;;;;;;;2.10;2.10;;;17.20;66.80;;;;;;5067124;28;43823;-75
2021/12/20 09:42:03;;;;;;;2.20;2.20;;;17.10;66.60;;;;;;5067349;28;43782;-76
2021/12/20 09:44:32;;;;;;;1.97;1.97;;;17.10;66.80;;;;;;5048252;28;43878;-76
2021/12/20 09:47:02;;;;;;;2.00;2.00;;;17.00;67.00;;;;;;5048454;28;45672;-76
2021/12/20 09:49:31;;;;;;;2.00;1.90;;;16.90;67.20;;;;;;5066793;28;43428;-74
2021/12/20 09:51:59;;;;;;;2.03;2.03;;;16.90;67.50;;;;;;5067177;28;43821;-76
2021/12/20 09:54:27;;;;;;;2.03;1.93;;;16.80;67.70;;;;;;5067437;28;44269;-76
2021/12/20 09:56:56;;;;;;;1.70;1.70;;;16.70;67.80;;;;;;5066900;28;43940;-75
2021/12/20 09:59:26;;;;;;;1.90;1.80;;;16.70;68.00;;;;;;5048225;28;46035;-75
2021/12/20 10:01:54;;;;;;;2.20;2.10;;;16.60;68.00;;;;;;5066869;28;43897;-75
2021/12/20 10:04:24;;;;;;;2.10;2.00;;;16.60;68.20;;;;;;5067510;28;44116;-75
2021/12/20 10:06:53;;;;;;;1.93;1.93;;;16.60;68.30;;;;;;5066916;28;43872;-76
2021/12/20 10:09:26;;;;;;;1.87;1.87;;;16.70;68.60;;;;;;5048222;28;44786;-75
2021/12/20 10:12:18;;;;;;;2.10;2.00;;;16.80;67.70;;;;;;5066702;28;43972;-75
2021/12/20 10:15:08;;;;;;;2.13;1.93;;;16.80;67.50;;;;;;5067258;28;44003;-75
2021/12/20 10:17:52;;;;;;;1.60;1.60;;;16.80;67.50;;;;;;5060880;28;44047;-75
2021/12/20 10:20:23;;;;;;;2.90;2.10;;;16.80;67.70;;;;;;5048723;28;44748;-75
2021/12/20 10:22:51;;;;;;;1.90;1.90;;;16.70;67.80;;;;;;5066941;28;43857;-75
2021/12/20 10:25:24;;;;;;;2.00;2.00;;;16.70;67.90;;;;;;5060430;28;43923;-75
2021/12/20 10:27:52;;;;;;;2.20;2.10;;;16.70;68.10;;;;;;5060237;28;43962;-75
2021/12/20 10:30:27;;;;;;;1.93;1.93;;;16.60;68.00;;;;;;5066814;28;43960;-75
2021/12/20 10:32:55;;;;;;;2.00;1.90;;;16.60;68.10;;;;;;5066610;28;44011;-76
2021/12/20 10:35:35;;;;;;;2.00;1.90;;;16.60;68.20;;;;;;5067052;28;44013;-75
2021/12/20 10:38:06;;;;;;;1.77;1.77;;;16.60;68.30;;;;;;5047993;28;45541;-76
2021/12/20 10:40:35;;;;;;;2.03;2.03;;;16.60;68.30;;;;;;5066262;28;43936;-75
2021/12/20 10:43:08;;;;;;;2.10;2.00;;;16.60;68.50;;;;;;5047901;28;44003;-74
2021/12/20 10:45:36;;;;;;;2.00;1.90;;;16.60;68.50;;;;;;5066588;28;43463;-75
2021/12/20 10:48:11;;;;;;;2.00;1.90;;;16.70;68.20;;;;;;5048177;28;45423;-75
2021/12/20 10:50:42;;;;;;;1.97;1.97;;;16.80;67.70;;;;;;5047884;28;43390;-75
2021/12/20 10:53:16;;;;;;;1.93;1.93;;;17.00;67.30;;;;;;5066437;28;44122;-75
2021/12/20 10:55:45;;;;;;;1.67;1.60;;;17.10;66.90;;;;;;5063184;28;43951;-75
2021/12/20 10:58:28;;;;;;;1.80;1.80;;;17.10;66.80;;;;;;5062939;28;43877;-75
2021/12/20 11:01:20;;;;;;;2.07;2.07;;;17.00;66.80;;;;;;5051233;28;45194;-75
2021/12/20 11:03:56;;;;;;;1.67;1.67;;;16.90;67.10;;;;;;5051692;28;44103;-75
2021/12/20 11:06:39;;;;;;;2.13;1.93;;;16.90;67.50;;;;;;5051834;28;43935;-75
2021/12/20 11:09:15;;;;;;;1.60;1.60;;;16.80;67.60;;;;;;5064790;28;44032;-75
2021/12/20 11:11:48;;;;;;;1.80;1.80;;;16.70;67.80;;;;;;5051232;28;43968;-75
2021/12/20 11:14:16;;;;;;;1.80;1.70;;;16.70;68.00;;;;;;5069615;28;43461;-75
2021/12/20 11:16:45;;;;;;;1.80;1.80;;;16.70;68.10;;;;;;5070120;28;44625;-74
2021/12/20 11:19:15;;;;;;;2.00;1.90;;;16.60;68.10;;;;;;5068969;28;43967;-76
2021/12/20 11:21:53;;;;;;;1.80;1.80;;;16.60;68.20;;;;;;5069292;28;43978;-75
2021/12/20 11:24:22;;;;;;;1.90;1.80;;;16.60;68.30;;;;;;5069834;28;43966;-75
2021/12/20 11:26:50;;;;;;;1.90;1.90;;;16.70;68.00;;;;;;5051475;28;43960;-75
2021/12/20 11:29:18;;;;;;;1.80;1.80;;;16.80;67.60;;;;;;5069085;28;44077;-75
2021/12/20 11:31:46;;;;;;;1.53;1.53;;;16.80;67.50;;;;;;5050983;28;45377;-75
2021/12/20 11:34:14;;;;;;;1.60;1.60;;;16.80;67.50;;;;;;5050880;28;44018;-75
2021/12/20 11:36:44;;;;;;;1.70;1.70;;;16.80;67.70;;;;;;5069545;28;44294;-75
2021/12/20 11:39:13;;;;;;;1.73;1.70;;;16.80;67.90;;;;;;5068692;28;44048;-75
2021/12/20 11:41:41;;;;;;;1.63;1.63;;;16.70;67.90;;;;;;5050495;28;45663;-75
2021/12/20 11:44:16;;;;;;;1.90;1.80;;;16.70;68.10;;;;;;5069379;28;43971;-75
2021/12/20 11:47:08;;;;;;;1.60;1.60;;;16.60;68.10;;;;;;5063716;28;44474;-76
2021/12/20 11:49:37;;;;;;;1.60;1.60;;;16.60;68.20;;;;;;5050223;28;45600;-74
2021/12/20 11:52:08;;;;;;;1.50;1.50;;;16.60;68.30;;;;;;5050380;28;44748;-74
2021/12/20 11:54:42;;;;;;;1.93;1.83;;;16.60;68.40;;;;;;5050617;28;43985;-75
2021/12/20 11:57:37;;;;;;;1.73;1.73;;;16.50;68.30;;;;;;5051276;28;44051;-75
2021/12/20 12:00:25;;;;;;;2.00;1.90;;;16.50;68.40;;;;;;5068314;28;44896;-75
2021/12/20 12:02:54;;;;;;;1.80;1.70;;;16.50;68.50;;;;;;5051421;28;44019;-75
2021/12/20 12:05:39;;;;;;;1.90;1.80;;;16.60;68.30;;;;;;5068591;28;43861;-74
2021/12/20 12:08:28;;;;;;;1.80;1.70;;;16.80;68.00;;;;;;5050628;28;43748;-74
2021/12/20 12:10:59;;;;;;;1.67;1.60;;;16.90;67.40;;;;;;5068654;28;43792;-76
2021/12/20 12:13:35;;;;;;;1.80;1.80;;;17.00;67.00;;;;;;5050077;28;44681;-76
2021/12/20 12:16:04;;;;;;;1.80;1.70;;;17.00;66.90;;;;;;5068762;28;43347;-76
2021/12/20 12:18:46;;;;;;;1.70;1.70;;;17.00;67.00;;;;;;5068740;28;44171;-75
2021/12/20 12:21:40;;;;;;;1.67;1.67;;;16.90;67.10;;;;;;5062042;28;43994;-75
2021/12/20 12:24:41;;;;;;;1.87;1.70;;;16.90;67.40;;;;;;5045179;28;44391;-75
2021/12/20 12:27:20;;;;;;;2.13;2.03;;;16.80;67.60;;;;;;5050282;28;44127;-75
2021/12/20 12:30:23;;;;;;;1.70;1.70;;;16.70;67.70;;;;;;5068492;28;43952;-75
2021/12/20 12:33:33;;;;;;;1.67;1.67;;;16.70;67.90;;;;;;5068560;28;43977;-75
2021/12/20 12:36:09;;;;;;;1.70;1.60;;;16.70;68.00;;;;;;5061737;28;43983;-74
2021/12/20 12:38:49;;;;;;;1.90;1.87;;;16.60;68.10;;;;;;5062916;28;43964;-74
2021/12/20 12:41:21;;;;;;;2.83;2.00;;;16.60;68.30;;;;;;5068619;28;43996;-75
2021/12/20 12:44:08;;;;;;;1.50;1.40;;;16.70;68.30;;;;;;5049839;28;45377;-75
2021/12/20 12:46:53;;;;;;;1.50;1.50;;;16.80;68.00;;;;;;5049718;28;43832;-75
2021/12/20 12:49:56;;;;;;;1.70;1.70;;;16.80;67.80;;;;;;5068475;28;44205;-74
2021/12/20 12:52:34;;;;;;;1.83;1.73;;;16.80;67.80;;;;;;5050112;28;43607;-75
2021/12/20 12:55:27;;;;;;;1.80;1.70;;;16.80;68.00;;;;;;5049406;28;45607;-75
2021/12/20 12:57:55;;;;;;;1.67;1.67;;;16.70;68.10;;;;;;5067701;28;43979;-75
2021/12/20 13:00:30;;;;;;;1.50;1.50;;;16.70;68.30;;;;;;5067780;28;43956;-75
2021/12/20 13:03:14;;;;;;;1.43;1.43;;;16.60;68.30;;;;;;5068277;28;43369;-74
2021/12/20 13:05:43;;;;;;;1.50;1.50;;;16.60;68.40;;;;;;5065519;28;43900;-75
2021/12/20 13:08:12;;;;;;;1.60;1.60;;;16.60;68.60;;;;;;5067579;28;43473;-75
2021/12/20 13:10:40;;;;;;;1.37;1.33;;;16.60;68.70;;;;;;5049307;28;43995;-75
2021/12/20 13:13:12;;;;;;;1.63;1.63;;;16.60;68.70;;;;;;5067729;28;43767;-75
2021/12/20 13:15:45;;;;;;;1.50;1.50;;;16.60;68.70;;;;;;5049214;28;45691;-75